x

Buoy F01 - West Penobscot Bay (44033) Wave Buoy

5:04 - Tue 24th May 2016 All times are EDT. -4 hours from GMT.

  • Sig Wave height 2.6ft
  • Peak Period 11s
  • Wind
    7mph
  • Sea Temp 53°f
  • Ar Temp 52°f
  • Sea Pressure 1013.7mb
  • Buoy F01 - West Penobscot Bay
  • Buoy F01 - West Penobscot Bay

More Historic Weather Station data

Upgrade to MSW Pro to gain access to the past 30 days of data for over 8000 Wavebouys and Weather Stations around the globe.

Join Pro

Comparision Forecast

View Surf forecast
   
Ter 05/24 5:04 2.5ft 11s 7
mph
1013.7mb 53f 52f
4:04 2.5ft 11s 9 11 mph 1013.8mb 53f 53f
3:04 2ft 11s 9 11 mph 1013.2mb 52f 54f
2:04 2ft 11s 9 11 mph 1012.7mb 53f 54f
1:04 2.5ft 8s 7
mph
1013.4mb 52f 54f
12:04 2.5ft 11s 7 9 mph 1013.2mb 51f 53f
Seg 05/23 11:04 2.5ft 8s 4 7 mph 1013.3mb 52f 53f
10:04 2.5ft 8s 2 4 mph 1013mb 53f 54f
9:04 3ft 11s 2
mph
1012.5mb 54f 54f
8:04 3ft 8s 2
mph
1012mb 53f 55f
7:04 3ft 11s 7
mph
1012.7mb 53f 55f
6:04 3ft 11s 9 11 mph 1012mb 53f 55f
5:04 3ft 11s 7 9 mph 1011.2mb 52f 53f
4:04  -   -  16 18 mph 1010.4mb 52f 54f
3:04 2.5ft 11s 9 11 mph 1009.6mb 49f 60f
2:04 2.5ft 11s 7
mph
1009.6mb 50f 62f
1:04  -   -  7 9 mph 1010.4mb 49f 59f
12:04 2.5ft 11s 7
mph
1010.2mb 48f 55f
11:04  -   -  4 7 mph 1010.7mb 49f 54f
10:04 2.5ft 11s 13 16 mph 1010.9mb 49f 55f
8:04 2.5ft 11s 11 13 mph 1010.8mb 49f 56f
7:04 2.5ft 11s 9
mph
1011.3mb 49f 55f
6:04 2.5ft 11s 4 7 mph 1011mb 48f 52f
5:04 2.5ft 8s 4 7 mph 1010.1mb 48f 52f
4:04 2ft 11s 9
mph
1009.8mb 48f 53f
3:04 2ft 11s 9
mph
1010.2mb 47f 53f
2:04 2ft 11s 7
mph
1010.2mb 48f 52f
1:04 2ft 11s 4 7 mph 1010.1mb 48f 53f
12:04 1.6ft 11s 7
mph
1009.9mb 48f 53f
Dom 05/22 11:04 2ft 11s 7
mph
1010mb 48f 53f
10:04 2ft 11s 7 9 mph 1009.4mb 48f 53f
9:04  -   -  7 9 mph 1009.5mb 48f 53f
8:04 1ft 8s 4
mph
1009.1mb 49f 52f
7:04 1ft 8s 4 7 mph 1008.6mb 49f 54f
6:04 1ft 8s  -  2 mph 1008.8mb 49f 57f
5:04 1ft 8s  -  2 mph 1008.6mb 49f 56f
4:04 1ft 8s 4 7 mph 1009.2mb 49f 51f
3:04 0.7ft  -  7
mph
1009.3mb 49f 53f
2:04 1ft 8s 7 9 mph 1010mb 49f 53f
1:04 1ft 8s 2
mph
1010mb 48f 53f
12:04 1ft 8s 4
mph
1010.4mb 48f 52f
11:04 1ft 8s 4 7 mph 1010.7mb 48f 51f
10:04 1ft 4s 4 7 mph 1011mb 47f 50f
9:04 1.6ft 8s 2 4 mph 1010.8mb 48f 51f
8:04 1.3ft 8s 2 4 mph 1010.8mb 48f 50f
7:04 1.3ft 8s 4 7 mph 1010.9mb 48f 49f
6:04 1.6ft 5s 4 7 mph 1010.9mb 48f 50f
5:04 1.6ft 5s 2 4 mph 1010.5mb 48f 49f
4:04 1.6ft 5s 2 4 mph 1010.8mb 48f 49f
3:04 1.3ft 8s 4
mph
1010.7mb 47f 49f
2:04 1.3ft 5s 4 7 mph 1011.3mb 47f 49f
1:04 1.3ft 8s 7
mph
1011.3mb 47f 49f
12:04 1.3ft 8s 7
mph
1012.2mb 48f 49f
Sáb 05/21 11:04 1.3ft 8s 9 11 mph 1012.7mb 48f 51f
10:04 1.3ft 4s 4 7 mph 1013.5mb 48f 49f
9:04 1.6ft 8s 7
mph
1013.8mb 48f 50f
8:04 1.6ft 8s 4 7 mph 1013.8mb 48f 50f
7:04 1.6ft 8s 4 7 mph 1013.9mb 47f 51f
6:04 1.6ft 8s 9 11 mph 1014.4mb 48f 52f
5:04 1.6ft 8s 9
mph
1014.7mb 49f 51f
4:04 1.6ft 8s 11 13 mph 1014.9mb 48f 52f
3:04 2ft 8s 13 16 mph 1015.4mb 48f 51f
2:04 1ft 3s 13 16 mph 1015.6mb 48f 51f
1:04 1ft 2s 13 16 mph 1016mb 48f 51f
12:04 1.3ft 8s 13 16 mph 1016.5mb 48f 51f
11:04 1.6ft 11s 11 13 mph 1016.8mb 49f 51f
10:04 1.3ft 8s 7 9 mph 1017.3mb 48f 52f
9:04 1.3ft 8s 9
mph
1018mb 48f 51f
8:04 1.6ft 8s 7 9 mph 1018mb 47f 53f
7:04 1.3ft 8s 4 7 mph 1018.3mb 47f 51f
6:04 1.6ft 8s 2 4 mph 1018.1mb 47f 53f
5:04 1.3ft 8s 7
mph
1018.2mb 47f 49f
4:04 1.3ft 8s 4 7 mph 1018.3mb 47f 50f
3:04 1.3ft 8s 7 9 mph 1018.5mb 47f 50f
2:04 1ft 8s 7 9 mph 1018.3mb 47f 51f
1:04 1.6ft 8s 7 9 mph 1018.4mb 47f 52f
12:04 1.6ft 6s 9 11 mph 1018.4mb 47f 51f
Sex 05/20 11:04 1.6ft 8s 11 13 mph 1018.4mb 47f 53f
10:04 1.6ft 6s 11
mph
1018.6mb 47f 53f
9:04 1.6ft 8s 13
mph
1018.3mb 47f 54f
8:04 2ft 6s 13 16 mph 1018.2mb 48f 53f
7:04 1.6ft 8s 16 18 mph 1018.2mb 47f 54f
6:04 2ft 8s 16 18 mph 1018.3mb 47f 54f
5:04 1.6ft 8s 13
mph
1018.4mb 48f 53f
4:04 2.5ft 11s 13 16 mph 1018.6mb 49f 54f
3:04 1.6ft 6s 13
mph
1018.8mb 49f 53f
2:04 1.6ft 8s 13 16 mph 1019.2mb 49f 53f
1:04 1.3ft 6s 13
mph
1019.5mb 49f 53f